Time;durP1;ratioP1;P1;durP2;ratioP2;P2;SDS_P1;SDS_P2;PMS_P1;PMS_P2;Temp;Humidity;BMP_temperature;BMP_pressure;BME280_temperature;BME280_humidity;BME280_pressure;Samples;Min_cycle;Max_cycle;Signal;HPM_P1;HPM_P2
2023/09/28 00:02:41;;;;;;;20.23;14.05;;;12.60;99.90;;;;;;4936792;29;20107;-76
2023/09/28 00:05:08;;;;;;;21.42;14.20;;;12.60;99.90;;;;;;4937425;29;20465;-77
2023/09/28 00:07:36;;;;;;;17.17;13.68;;;12.60;99.90;;;;;;4935192;29;20060;-76
2023/09/28 00:10:05;;;;;;;15.82;12.68;;;12.60;99.90;;;;;;4937693;29;20091;-77
2023/09/28 00:12:33;;;;;;;16.95;13.15;;;12.50;99.90;;;;;;4935698;29;20052;-75
2023/09/28 00:14:59;;;;;;;17.80;13.10;;;12.50;99.90;;;;;;4934906;29;20052;-76
2023/09/28 00:17:27;;;;;;;18.23;13.20;;;12.40;99.90;;;;;;4934123;29;20047;-76
2023/09/28 00:19:53;;;;;;;21.27;13.93;;;12.30;99.90;;;;;;4935229;29;20095;-77
2023/09/28 00:22:21;;;;;;;17.00;13.68;;;12.30;99.90;;;;;;4933148;29;20036;-78
2023/09/28 00:24:47;;;;;;;18.65;13.95;;;12.20;99.90;;;;;;4927243;29;20038;-77
2023/09/28 00:27:16;;;;;;;15.10;13.20;;;12.30;99.90;;;;;;4921703;29;20123;-77
2023/09/28 00:29:43;;;;;;;16.00;12.82;;;12.20;99.90;;;;;;4936679;29;20047;-78
2023/09/28 00:32:10;;;;;;;19.67;13.52;;;12.30;99.90;;;;;;4936326;29;20048;-77
2023/09/28 00:34:36;;;;;;;18.42;13.48;;;12.30;99.90;;;;;;4939092;29;20595;-78
2023/09/28 00:37:04;;;;;;;17.75;13.10;;;12.10;99.90;;;;;;4915364;29;20059;-76
2023/09/28 00:39:31;;;;;;;18.77;14.68;;;12.10;99.90;;;;;;4913324;29;20133;-76
2023/09/28 00:41:59;;;;;;;18.67;13.40;;;12.10;99.90;;;;;;4934427;29;20122;-77
2023/09/28 00:44:26;;;;;;;20.52;14.18;;;12.10;99.90;;;;;;4917494;29;20043;-76
2023/09/28 00:46:54;;;;;;;21.70;13.60;;;12.10;99.90;;;;;;4927796;29;20469;-76
2023/09/28 00:49:20;;;;;;;24.08;16.10;;;12.20;99.90;;;;;;4911605;29;20092;-78
2023/09/28 00:51:48;;;;;;;18.92;14.68;;;12.30;99.90;;;;;;4917134;29;20048;-76
2023/09/28 00:54:14;;;;;;;21.60;15.88;;;12.30;99.90;;;;;;4942294;29;20027;-77
2023/09/28 00:56:43;;;;;;;23.92;16.00;;;12.20;99.90;;;;;;4929600;29;20052;-77
2023/09/28 00:59:09;;;;;;;21.95;16.45;;;12.20;99.90;;;;;;4926928;29;20055;-75
2023/09/28 01:01:39;;;;;;;21.15;16.55;;;12.10;99.90;;;;;;4929737;29;20047;-75
2023/09/28 01:04:06;;;;;;;21.23;18.00;;;12.10;99.90;;;;;;4947078;29;20054;-76
2023/09/28 01:06:36;;;;;;;22.25;18.83;;;12.00;99.90;;;;;;4946415;29;20496;-77
2023/09/28 01:09:06;;;;;;;22.52;17.45;;;12.00;99.90;;;;;;4930256;29;20059;-77
2023/09/28 01:11:34;;;;;;;22.15;15.95;;;12.00;99.90;;;;;;4945357;29;20044;-76
2023/09/28 01:14:04;;;;;;;22.48;17.27;;;12.00;99.90;;;;;;4930658;29;20513;-79
2023/09/28 01:16:30;;;;;;;21.20;16.58;;;11.90;99.90;;;;;;4920310;29;20052;-76
2023/09/28 01:18:59;;;;;;;24.30;17.27;;;11.80;99.90;;;;;;4939091;29;20044;-76
2023/09/28 01:21:26;;;;;;;23.25;17.77;;;11.80;99.90;;;;;;4937957;28;20071;-76
2023/09/28 01:23:57;;;;;;;22.83;17.02;;;11.80;99.90;;;;;;4929432;29;20047;-77
2023/09/28 01:26:23;;;;;;;23.40;18.02;;;11.80;99.90;;;;;;4932559;29;20068;-76
2023/09/28 01:28:50;;;;;;;27.13;20.20;;;11.80;99.90;;;;;;4946621;29;20036;-77
2023/09/28 01:31:17;;;;;;;25.00;19.60;;;11.70;99.90;;;;;;4928529;29;20058;-77
2023/09/28 01:33:44;;;;;;;22.23;16.05;;;11.70;99.90;;;;;;4928028;29;20051;-77
2023/09/28 01:36:10;;;;;;;24.20;19.20;;;11.50;99.90;;;;;;4944443;29;20214;-77
2023/09/28 01:38:42;;;;;;;26.05;18.33;;;11.50;99.90;;;;;;4924384;29;20043;-77
2023/09/28 01:41:11;;;;;;;25.50;16.20;;;11.40;99.90;;;;;;4920402;29;20064;-76
2023/09/28 01:43:39;;;;;;;21.00;14.73;;;11.50;99.90;;;;;;4944622;29;20052;-75
2023/09/28 01:46:05;;;;;;;21.25;16.45;;;11.60;99.90;;;;;;4945808;29;20079;-76
2023/09/28 01:48:32;;;;;;;20.40;16.23;;;11.60;99.90;;;;;;4943887;29;20055;-77
2023/09/28 01:51:01;;;;;;;28.33;16.77;;;11.70;99.90;;;;;;4940454;29;20051;-75
2023/09/28 01:53:28;;;;;;;19.88;15.27;;;11.60;99.90;;;;;;4939235;29;20210;-77
2023/09/28 01:55:59;;;;;;;25.90;15.85;;;11.60;99.90;;;;;;4923458;29;20048;-77
2023/09/28 01:58:28;;;;;;;21.45;16.45;;;11.60;99.90;;;;;;4916166;29;20044;-76
2023/09/28 02:00:54;;;;;;;20.48;15.27;;;11.60;99.90;;;;;;4905986;29;20057;-76
2023/09/28 02:03:22;;;;;;;24.33;16.10;;;11.50;99.90;;;;;;4923910;29;20142;-76
2023/09/28 02:05:49;;;;;;;23.25;17.55;;;11.60;99.90;;;;;;4920759;29;20521;-77
2023/09/28 02:08:17;;;;;;;21.33;16.70;;;11.50;99.90;;;;;;4930638;29;20492;-75
2023/09/28 02:10:46;;;;;;;22.83;17.08;;;11.50;99.90;;;;;;4929662;29;20036;-75
2023/09/28 02:13:14;;;;;;;24.08;16.55;;;11.40;99.90;;;;;;4936037;29;20580;-77
2023/09/28 02:15:43;;;;;;;22.67;16.70;;;11.20;99.90;;;;;;4915397;29;20150;-75
2023/09/28 02:18:10;;;;;;;21.83;16.13;;;11.20;99.90;;;;;;4907010;29;20058;-76
2023/09/28 02:20:37;;;;;;;22.00;16.83;;;11.30;99.90;;;;;;4920997;29;20052;-75
2023/09/28 02:23:09;;;;;;;22.23;16.15;;;11.40;99.90;;;;;;4918754;29;20052;-76
2023/09/28 02:25:35;;;;;;;21.48;15.25;;;11.40;99.90;;;;;;4930661;29;20048;-77
2023/09/28 02:28:03;;;;;;;19.98;15.95;;;11.30;99.90;;;;;;4919190;29;20048;-77
2023/09/28 02:30:29;;;;;;;17.55;14.90;;;11.30;99.90;;;;;;4935641;29;20162;-76
2023/09/28 02:32:58;;;;;;;21.42;14.75;;;11.30;99.90;;;;;;4931874;29;20044;-78
2023/09/28 02:35:24;;;;;;;21.80;15.25;;;11.30;99.90;;;;;;4932861;29;20103;-75
2023/09/28 02:37:53;;;;;;;20.92;15.85;;;11.30;99.90;;;;;;4914360;29;20048;-76
2023/09/28 02:40:19;;;;;;;23.33;15.77;;;11.20;99.90;;;;;;4931679;29;20040;-75
2023/09/28 02:42:48;;;;;;;20.25;15.57;;;11.20;99.90;;;;;;4934029;29;20055;-76
2023/09/28 02:45:14;;;;;;;19.80;16.02;;;11.30;99.90;;;;;;4919655;29;20051;-77
2023/09/28 02:47:43;;;;;;;18.77;15.30;;;11.20;99.90;;;;;;4923495;29;20060;-77
2023/09/28 02:54:25;;;;;;;20.88;15.00;;;11.20;99.90;;;;;;4913173;29;20059;-79
2023/09/28 03:00:42;;;;;;;22.48;15.60;;;11.10;99.90;;;;;;4876546;29;20056;-79
2023/09/28 03:09:50;;;;;;;24.80;17.30;;;10.70;99.90;;;;;;4906694;29;20799;-80
2023/09/28 03:12:18;;;;;;;22.33;17.05;;;10.60;99.90;;;;;;4895441;29;20623;-79
2023/09/28 03:14:57;;;;;;;22.05;16.95;;;10.70;99.90;;;;;;4910203;29;20060;-79
2023/09/28 03:17:31;;;;;;;19.75;16.30;;;10.70;99.90;;;;;;4885215;29;20040;-78
2023/09/28 03:20:05;;;;;;;21.98;16.27;;;10.70;99.90;;;;;;4889306;29;20104;-79
2023/09/28 03:22:33;;;;;;;21.95;14.10;;;10.70;99.90;;;;;;4917960;29;20462;-80
2023/09/28 03:25:16;;;;;;;20.58;14.32;;;10.70;99.90;;;;;;4894086;29;20152;-79
2023/09/28 03:27:52;;;;;;;20.60;13.52;;;10.80;99.90;;;;;;4893217;29;20044;-78
2023/09/28 03:30:26;;;;;;;19.50;13.82;;;10.80;99.90;;;;;;4909929;29;20036;-79
2023/09/28 03:32:59;;;;;;;22.30;13.63;;;10.80;99.90;;;;;;4906469;29;20040;-80
2023/09/28 03:35:39;;;;;;;17.98;13.07;;;10.70;99.90;;;;;;4896002;29;20044;-77
2023/09/28 03:38:08;;;;;;;17.02;13.48;;;10.70;99.90;;;;;;4912734;29;20051;-78
2023/09/28 03:40:52;;;;;;;21.45;14.48;;;10.70;99.90;;;;;;4897396;29;20049;-79
2023/09/28 03:43:26;;;;;;;17.95;13.32;;;10.70;99.90;;;;;;4884458;29;20048;-78
2023/09/28 03:46:07;;;;;;;20.73;13.23;;;10.70;99.90;;;;;;4904041;29;20085;-80
2023/09/28 03:48:54;;;;;;;20.05;13.57;;;10.70;99.90;;;;;;4909944;29;20561;-79
2023/09/28 03:51:43;;;;;;;23.77;13.63;;;10.70;99.90;;;;;;4919849;29;20066;-80
2023/09/28 03:54:41;;;;;;;16.50;12.30;;;10.70;99.90;;;;;;4909999;29;20473;-80
2023/09/28 03:57:21;;;;;;;17.08;12.85;;;10.70;99.90;;;;;;4904905;29;20135;-80
2023/09/28 04:00:02;;;;;;;15.70;12.27;;;10.60;99.90;;;;;;4919360;29;20126;-80
2023/09/28 04:02:54;;;;;;;23.58;13.57;;;10.60;99.90;;;;;;4910284;29;20052;-79
2023/09/28 04:05:35;;;;;;;18.48;12.88;;;10.70;99.90;;;;;;4928293;29;20036;-79
2023/09/28 04:08:13;;;;;;;19.08;12.90;;;10.60;99.90;;;;;;4920427;29;20111;-78
2023/09/28 04:10:47;;;;;;;18.15;13.23;;;10.60;99.90;;;;;;4929861;29;20122;-80
2023/09/28 04:13:19;;;;;;;16.13;12.88;;;10.70;99.90;;;;;;4928523;29;20055;-78
2023/09/28 04:15:59;;;;;;;21.50;12.68;;;10.60;99.90;;;;;;4930356;29;20040;-80
2023/09/28 04:18:52;;;;;;;;;;;;;;;;;;;;;
2023/09/28 04:21:30;;;;;;;17.50;13.13;;;10.70;99.90;;;;;;4910263;29;20147;-80
2023/09/28 04:24:14;;;;;;;20.88;14.25;;;10.60;99.90;;;;;;4890121;29;20117;-80
2023/09/28 04:26:45;;;;;;;26.55;16.55;;;10.60;99.90;;;;;;4917967;29;20055;-80
2023/09/28 04:29:24;;;;;;;17.40;14.82;;;10.60;99.90;;;;;;4911584;29;20040;-81
2023/09/28 04:32:27;;;;;;;21.48;15.68;;;10.60;99.90;;;;;;4929368;29;20424;-80
2023/09/28 04:35:23;;;;;;;21.80;15.55;;;10.60;99.90;;;;;;4927514;29;20474;-79
2023/09/28 04:37:59;;;;;;;23.25;15.48;;;10.50;99.90;;;;;;4926519;29;20051;-80
2023/09/28 04:40:36;;;;;;;21.65;15.85;;;10.50;99.90;;;;;;4929456;29;20039;-79
2023/09/28 04:43:12;;;;;;;23.58;16.35;;;10.50;99.90;;;;;;4910140;29;20044;-79
2023/09/28 04:45:43;;;;;;;21.15;15.77;;;10.50;99.90;;;;;;4910745;29;20052;-80
2023/09/28 04:48:14;;;;;;;24.10;15.98;;;10.40;99.90;;;;;;4928956;29;20036;-79
2023/09/28 04:50:45;;;;;;;22.17;15.07;;;10.50;99.90;;;;;;4919469;29;20052;-80
2023/09/28 04:53:27;;;;;;;20.17;14.38;;;10.60;99.90;;;;;;4919888;29;20040;-79
2023/09/28 04:55:59;;;;;;;19.88;15.05;;;10.60;99.90;;;;;;4926538;29;20407;-81
2023/09/28 04:58:35;;;;;;;28.42;18.52;;;10.60;99.90;;;;;;4927222;29;20641;-81
2023/09/28 05:01:07;;;;;;;19.80;13.88;;;10.70;99.90;;;;;;4926617;29;20043;-80
2023/09/28 05:03:44;;;;;;;25.52;16.58;;;10.60;99.90;;;;;;4917544;29;20122;-79
2023/09/28 05:06:16;;;;;;;20.13;14.40;;;10.60;99.90;;;;;;4916570;29;20112;-80
2023/09/28 05:08:47;;;;;;;19.58;13.95;;;10.70;99.90;;;;;;4902317;29;20047;-79
2023/09/28 05:11:16;;;;;;;18.48;14.43;;;10.80;99.90;;;;;;4905366;29;20055;-80
2023/09/28 05:13:57;;;;;;;20.63;13.75;;;10.80;99.90;;;;;;4927381;29;20224;-80
2023/09/28 05:16:33;;;;;;;20.10;13.85;;;10.80;99.90;;;;;;4910059;29;20043;-80
2023/09/28 05:19:35;;;;;;;;;;;;;;;;;;;;;
2023/09/28 05:22:26;;;;;;;26.70;14.60;;;10.90;99.90;;;;;;4905712;29;20501;-81
2023/09/28 05:25:06;;;;;;;19.27;14.95;;;11.00;99.90;;;;;;4911277;29;20111;-80
2023/09/28 05:31:13;;;;;;;20.17;13.68;;;11.20;99.90;;;;;;4886639;29;20488;-78
2023/09/28 05:33:59;;;;;;;20.90;14.10;;;11.20;99.90;;;;;;4909190;29;20536;-80
2023/09/28 05:36:33;;;;;;;22.00;15.45;;;11.30;99.90;;;;;;4883757;29;20064;-77
2023/09/28 05:39:30;;;;;;;23.17;16.35;;;11.40;99.90;;;;;;4911868;29;20400;-80
2023/09/28 05:45:49;;;;;;;25.15;14.55;;;11.60;99.90;;;;;;4907145;29;20055;-80
2023/09/28 05:48:20;;;;;;;23.50;14.88;;;11.80;99.90;;;;;;4898811;29;20514;-79
2023/09/28 05:50:51;;;;;;;23.40;14.70;;;12.10;99.90;;;;;;4929357;29;20056;-77
2023/09/28 05:53:26;;;;;;;24.60;15.73;;;12.20;99.90;;;;;;4930140;29;20040;-80
2023/09/28 05:55:52;;;;;;;25.35;17.17;;;12.40;99.90;;;;;;4913029;29;20127;-80
2023/09/28 05:58:20;;;;;;;20.80;13.65;;;12.50;99.90;;;;;;4930720;29;20040;-79
2023/09/28 06:00:59;;;;;;;22.33;13.80;;;12.70;99.90;;;;;;4931409;29;20070;-79
2023/09/28 06:03:26;;;;;;;28.92;15.27;;;12.80;99.90;;;;;;4913265;29;20040;-79
2023/09/28 06:05:55;;;;;;;21.35;14.48;;;13.00;99.90;;;;;;4914604;29;20147;-80
2023/09/28 06:08:34;;;;;;;;;;;;;;;;;;;;;
2023/09/28 06:11:14;;;;;;;20.13;14.68;;;13.40;99.90;;;;;;4930831;29;20574;-79
2023/09/28 06:13:47;;;;;;;22.55;15.70;;;13.60;99.90;;;;;;4939180;29;20048;-80
2023/09/28 06:16:17;;;;;;;21.95;13.38;;;13.70;99.90;;;;;;4944197;29;20040;-80
2023/09/28 06:18:46;;;;;;;23.75;14.63;;;13.90;1.00;;;;;;4925136;29;20119;-79
2023/09/28 06:21:14;;;;;;;23.00;14.13;;;14.10;1.00;;;;;;4919078;29;20055;-79
2023/09/28 06:23:48;;;;;;;21.42;14.20;;;14.20;1.00;;;;;;4930808;29;20111;-78
2023/09/28 06:26:21;;;;;;;21.83;13.88;;;14.40;99.90;;;;;;4931992;29;20075;-80
2023/09/28 06:29:00;;;;;;;26.67;14.77;;;14.60;99.90;;;;;;4915818;29;20040;-79
2023/09/28 06:31:33;;;;;;;24.60;14.55;;;14.70;1.00;;;;;;4900713;29;20056;-81
2023/09/28 06:34:01;;;;;;;21.05;13.65;;;14.80;1.00;;;;;;4915848;29;20051;-78
2023/09/28 06:37:04;;;;;;;21.55;14.60;;;14.90;99.90;;;;;;4913965;29;20515;-84
2023/09/28 06:44:11;;;;;;;22.27;14.80;;;15.10;99.90;;;;;;4922973;29;20122;-85
2023/09/28 06:54:29;;;;;;;23.20;14.57;;;15.60;1.00;;;;;;4939965;29;20531;-88
2023/09/28 06:57:08;;;;;;;28.55;18.10;;;15.70;99.90;;;;;;4907265;29;20537;-88
2023/09/28 06:59:40;;;;;;;24.77;17.05;;;15.80;1.00;;;;;;4914904;29;20575;-84
2023/09/28 07:02:09;;;;;;;19.08;15.00;;;16.00;1.00;;;;;;4914493;29;20095;-87
2023/09/28 07:04:37;;;;;;;25.88;15.40;;;16.10;99.90;;;;;;4914810;29;20487;-82
2023/09/28 07:07:06;;;;;;;28.60;16.10;;;16.30;1.00;;;;;;4913348;29;20048;-85
2023/09/28 07:09:34;;;;;;;22.63;14.50;;;16.50;1.00;;;;;;4913591;29;20095;-87
2023/09/28 07:12:02;;;;;;;25.83;14.50;;;16.60;8.30;;;;;;4918133;29;20063;-84
2023/09/28 07:14:29;;;;;;;23.00;15.82;;;16.70;1.00;;;;;;4932097;29;20135;-83
2023/09/28 07:17:01;;;;;;;21.52;14.48;;;16.70;1.00;;;;;;4914009;29;20131;-85
2023/09/28 07:19:38;;;;;;;21.42;13.77;;;16.90;1.00;;;;;;4901215;29;20103;-87
2023/09/28 07:26:46;;;;;;;;;;;;;;;;;;;;;
2023/09/28 07:36:05;;;;;;;20.52;14.52;;;17.90;1.00;;;;;;4720012;30;20047;-85
2023/09/28 07:44:31;;;;;;;21.48;13.98;;;18.50;99.90;;;;;;4212226;26;20178;-83
2023/09/28 07:50:26;;;;;;;23.20;13.77;;;18.80;1.00;;;;;;4936548;29;20064;-83
2023/09/28 07:53:04;;;;;;;19.40;13.25;;;18.90;1.00;;;;;;4924497;29;20130;-85
2023/09/28 07:59:15;;;;;;;23.35;15.02;;;19.30;1.00;;;;;;4909213;29;20049;-86
2023/09/28 08:02:39;;;;;;;22.50;13.68;;;19.30;1.00;;;;;;4923049;29;20051;-84
2023/09/28 08:05:54;;;;;;;;;;;;;;;;;;;;;
2023/09/28 08:08:40;;;;;;;19.33;14.15;;;19.70;1.00;;;;;;4842103;29;20051;-86
2023/09/28 08:30:12;;;;;;;;;;;;;;;;;;;;;
2023/09/28 08:32:47;;;;;;;19.20;11.10;;;20.50;99.90;;;;;;4934851;28;20051;-90
2023/09/28 08:35:24;;;;;;;19.23;12.30;;;20.60;99.90;;;;;;4970547;28;20038;-88
2023/09/28 08:38:20;;;;;;;15.25;10.80;;;20.60;99.90;;;;;;4966149;28;20058;-84
2023/09/28 08:41:43;;;;;;;16.58;10.95;;;20.60;99.90;;;;;;4972150;28;20311;-89
2023/09/28 08:45:15;;;;;;;15.90;11.95;;;20.60;99.90;;;;;;4974060;28;20046;-89
2023/09/28 08:51:44;;;;;;;19.63;11.15;;;20.80;99.90;;;;;;4981295;23;20063;-89
2023/09/28 08:54:52;;;;;;;;;;;;;;;;;;;;;
2023/09/28 09:01:46;;;;;;;16.45;10.15;;;21.10;99.90;;;;;;4931816;29;20127;-92
2023/09/28 09:16:11;;;;;;;17.05;10.00;;;21.40;99.90;;;;;;4800367;29;20082;-90
2023/09/28 09:43:26;;;;;;;9.93;4.38;;;22.90;1.00;;;;;;4876975;29;20052;-88
2023/09/28 09:54:28;;;;;;;;;;;;;;;;;;;;;
2023/09/28 10:08:01;;;;;;;11.95;5.53;;;23.40;1.00;;;;;;4687914;30;20057;-90
2023/09/28 10:14:05;;;;;;;6.13;3.40;;;23.50;1.00;;;;;;4680271;30;20070;-91
2023/09/28 10:17:20;;;;;;;13.15;4.47;;;23.50;1.00;;;;;;4697747;30;20053;-89
2023/09/28 10:20:13;;;;;;;7.25;3.85;;;23.50;1.00;;;;;;4713556;30;20059;-88
2023/09/28 10:23:31;;;;;;;6.30;3.40;;;23.50;1.00;;;;;;4772352;30;20115;-90
2023/09/28 10:26:35;;;;;;;;;;;;;;;;;;;;;
2023/09/28 10:32:47;;;;;;;7.03;4.28;;;23.30;1.00;;;;;;4777815;30;20063;-85
2023/09/28 10:42:43;;;;;;;11.45;8.05;;;23.60;1.00;;;;;;4838324;29;20367;-89
2023/09/28 10:45:11;;;;;;;11.65;4.68;;;23.70;1.00;;;;;;4819744;29;20149;-90
2023/09/28 10:47:53;;;;;;;11.15;4.75;;;23.70;1.00;;;;;;4903869;29;20129;-88
2023/09/28 10:50:21;;;;;;;19.33;12.70;;;23.70;1.00;;;;;;4937598;29;20474;-88
2023/09/28 10:52:48;;;;;;;11.23;5.03;;;23.80;1.00;;;;;;4941835;28;20121;-82
2023/09/28 10:55:17;;;;;;;11.38;5.38;;;23.80;1.00;;;;;;4928556;29;20075;-84
2023/09/28 10:57:44;;;;;;;11.82;5.03;;;23.80;1.00;;;;;;4947965;29;20047;-83
2023/09/28 11:00:13;;;;;;;12.85;4.82;;;23.80;1.00;;;;;;4946850;29;20054;-82
2023/09/28 11:02:42;;;;;;;8.45;4.18;;;23.90;1.00;;;;;;4947047;29;20051;-82
2023/09/28 11:05:11;;;;;;;16.42;4.63;;;23.90;1.00;;;;;;4948280;29;20061;-82
2023/09/28 11:07:40;;;;;;;13.90;7.53;;;23.90;1.00;;;;;;4947676;29;20133;-82
2023/09/28 11:10:08;;;;;;;7.40;3.95;;;24.00;1.00;;;;;;4932919;29;20067;-82
2023/09/28 11:12:36;;;;;;;8.48;3.80;;;24.10;1.00;;;;;;4932594;29;20044;-81
2023/09/28 11:15:05;;;;;;;6.05;3.97;;;24.10;1.00;;;;;;4946922;28;20415;-81
2023/09/28 11:17:33;;;;;;;7.70;3.70;;;24.00;1.00;;;;;;4944627;29;20043;-82
2023/09/28 11:20:01;;;;;;;8.57;4.47;;;24.00;1.00;;;;;;4944621;29;20053;-82
2023/09/28 11:22:31;;;;;;;10.00;4.18;;;24.00;1.00;;;;;;4929534;29;20056;-83
2023/09/28 11:24:59;;;;;;;10.85;5.60;;;24.00;1.00;;;;;;4947804;29;20048;-81
2023/09/28 11:27:27;;;;;;;11.00;5.13;;;24.00;1.00;;;;;;4936096;29;20094;-81
2023/09/28 11:29:56;;;;;;;7.20;4.85;;;24.10;1.00;;;;;;4953561;29;20058;-82
2023/09/28 11:32:24;;;;;;;11.82;5.82;;;24.10;1.00;;;;;;4949200;29;20047;-81
2023/09/28 11:34:53;;;;;;;10.70;4.15;;;24.10;1.00;;;;;;4912686;29;20103;-82
2023/09/28 11:37:24;;;;;;;10.30;4.97;;;24.00;1.00;;;;;;4923030;29;20089;-82
2023/09/28 11:39:53;;;;;;;14.65;4.80;;;23.90;1.00;;;;;;4939929;29;20111;-83
2023/09/28 11:42:22;;;;;;;8.68;4.47;;;24.00;1.00;;;;;;4935769;29;20051;-83
2023/09/28 11:44:49;;;;;;;9.85;3.90;;;24.10;1.00;;;;;;4938832;29;20060;-81
2023/09/28 11:47:20;;;;;;;8.38;3.80;;;24.10;1.00;;;;;;4921144;28;20123;-82
2023/09/28 11:49:49;;;;;;;9.15;3.38;;;24.10;1.00;;;;;;4938470;29;20157;-81
2023/09/28 11:52:18;;;;;;;9.18;3.80;;;24.10;1.00;;;;;;4939541;29;20922;-82
2023/09/28 11:54:46;;;;;;;12.10;5.28;;;24.20;1.00;;;;;;4937150;29;20114;-83
2023/09/28 11:57:19;;;;;;;9.25;3.40;;;24.20;1.00;;;;;;4937775;29;20031;-81
2023/09/28 11:59:47;;;;;;;8.32;3.50;;;24.30;1.00;;;;;;4935343;29;20120;-81
2023/09/28 12:02:15;;;;;;;12.20;3.63;;;24.40;1.00;;;;;;4917541;29;20059;-82
2023/09/28 12:04:44;;;;;;;8.75;3.53;;;24.40;1.00;;;;;;4935310;29;20161;-81
2023/09/28 12:07:11;;;;;;;12.07;4.22;;;24.40;1.00;;;;;;4919449;29;20767;-83
2023/09/28 12:09:39;;;;;;;8.50;3.58;;;24.50;1.00;;;;;;4929826;29;20111;-80
2023/09/28 12:12:06;;;;;;;6.38;3.00;;;24.60;1.00;;;;;;4934966;29;20070;-81
2023/09/28 12:14:35;;;;;;;8.50;3.30;;;24.50;1.00;;;;;;4919025;29;20074;-82
2023/09/28 12:17:03;;;;;;;7.25;3.70;;;24.50;1.00;;;;;;4934138;29;20427;-81
2023/09/28 12:19:31;;;;;;;6.53;3.22;;;24.50;1.00;;;;;;4936405;29;20043;-82
2023/09/28 12:22:03;;;;;;;7.45;3.03;;;24.50;1.00;;;;;;4939658;29;20051;-83
2023/09/28 12:24:30;;;;;;;9.23;3.10;;;24.50;1.00;;;;;;4929702;29;20059;-82
2023/09/28 12:26:59;;;;;;;11.63;4.63;;;24.70;1.00;;;;;;4936717;29;20051;-82
2023/09/28 12:29:26;;;;;;;8.65;4.13;;;24.70;1.00;;;;;;4933027;29;20039;-83
2023/09/28 12:31:55;;;;;;;6.90;3.10;;;24.70;1.00;;;;;;4932157;29;20416;-82
2023/09/28 12:34:25;;;;;;;5.07;2.65;;;24.70;1.00;;;;;;4934447;28;20062;-81
2023/09/28 12:36:57;;;;;;;8.15;3.38;;;24.70;1.00;;;;;;4933371;29;20043;-81
2023/09/28 12:39:24;;;;;;;6.30;2.78;;;24.80;1.00;;;;;;4933264;29;20128;-82
2023/09/28 12:41:58;;;;;;;7.40;2.85;;;24.70;1.00;;;;;;4929976;29;20040;-82
2023/09/28 12:44:28;;;;;;;6.63;3.13;;;24.80;1.00;;;;;;4929106;29;20051;-80
2023/09/28 12:46:57;;;;;;;5.72;2.75;;;24.70;1.00;;;;;;4933763;29;20043;-82
2023/09/28 12:49:25;;;;;;;6.72;2.75;;;24.70;1.00;;;;;;4933710;29;20039;-80
2023/09/28 12:51:52;;;;;;;6.75;2.83;;;24.80;1.00;;;;;;4935613;29;20056;-81
2023/09/28 12:54:20;;;;;;;5.88;2.65;;;24.80;1.00;;;;;;4933066;29;20604;-81
2023/09/28 12:56:48;;;;;;;9.02;3.63;;;24.90;1.00;;;;;;4933830;29;20054;-82
2023/09/28 12:59:15;;;;;;;7.05;2.97;;;24.90;1.00;;;;;;4920017;29;20047;-82
2023/09/28 13:01:43;;;;;;;7.70;3.10;;;24.90;1.00;;;;;;4923359;29;20103;-82
2023/09/28 13:04:12;;;;;;;5.65;3.22;;;24.90;1.00;;;;;;4935370;29;20048;-83
2023/09/28 13:06:40;;;;;;;7.78;3.25;;;24.80;1.00;;;;;;4915760;29;20047;-81
2023/09/28 13:09:08;;;;;;;7.78;3.15;;;24.80;1.00;;;;;;4915410;29;20046;-82
2023/09/28 13:11:35;;;;;;;7.97;2.92;;;24.70;1.00;;;;;;4928391;29;20043;-81
2023/09/28 13:14:03;;;;;;;10.23;2.90;;;24.70;1.00;;;;;;4932940;29;20115;-80
2023/09/28 13:16:30;;;;;;;10.00;3.47;;;24.80;1.00;;;;;;4931980;29;20051;-80
2023/09/28 13:18:59;;;;;;;8.75;4.10;;;24.80;1.00;;;;;;4915998;29;20057;-80
2023/09/28 13:21:28;;;;;;;11.75;5.55;;;24.90;1.00;;;;;;4929827;29;20071;-79
2023/09/28 13:23:56;;;;;;;9.98;5.32;;;24.90;1.00;;;;;;4934633;29;20059;-79
2023/09/28 13:26:24;;;;;;;6.03;3.05;;;24.90;1.00;;;;;;4935394;29;20051;-81
2023/09/28 13:28:54;;;;;;;9.85;3.67;;;24.90;1.00;;;;;;4937182;29;20047;-80
2023/09/28 13:31:22;;;;;;;5.72;2.83;;;24.80;1.00;;;;;;4937032;29;20094;-79
2023/09/28 13:33:50;;;;;;;7.20;2.78;;;24.90;1.00;;;;;;4936566;28;20167;-80
2023/09/28 13:36:18;;;;;;;10.63;2.97;;;24.90;1.00;;;;;;4932236;29;20052;-82
2023/09/28 13:38:49;;;;;;;5.80;2.72;;;24.90;1.00;;;;;;4931559;29;20071;-81
2023/09/28 13:41:17;;;;;;;9.65;2.95;;;24.80;1.00;;;;;;4930123;29;20131;-81
2023/09/28 13:43:45;;;;;;;10.25;2.72;;;24.80;1.00;;;;;;4915685;29;20172;-81
2023/09/28 13:46:12;;;;;;;10.82;5.97;;;24.90;1.00;;;;;;4934304;29;20047;-79
2023/09/28 13:48:39;;;;;;;7.45;3.83;;;24.80;1.00;;;;;;4939381;29;20042;-80
2023/09/28 13:51:08;;;;;;;7.80;2.97;;;24.70;1.00;;;;;;4940550;29;20040;-81
2023/09/28 13:53:37;;;;;;;9.35;3.55;;;24.70;1.00;;;;;;4936050;29;20530;-82
2023/09/28 13:56:06;;;;;;;9.60;4.60;;;24.70;1.00;;;;;;4938302;29;20042;-80
2023/09/28 13:58:34;;;;;;;8.43;3.80;;;24.70;1.00;;;;;;4940959;29;20571;-84
2023/09/28 14:01:03;;;;;;;10.52;3.10;;;24.80;1.00;;;;;;4919599;29;20049;-86
2023/09/28 14:03:30;;;;;;;10.05;3.30;;;24.80;1.00;;;;;;4921725;29;20521;-81
2023/09/28 14:05:58;;;;;;;10.18;3.00;;;24.70;1.00;;;;;;4929994;29;20043;-84
2023/09/28 14:08:26;;;;;;;8.20;3.28;;;24.80;1.00;;;;;;4931104;29;20044;-84
2023/09/28 14:10:53;;;;;;;6.38;3.33;;;24.80;1.00;;;;;;4927580;29;20051;-84
2023/09/28 14:13:22;;;;;;;10.45;4.28;;;24.80;1.00;;;;;;4935149;29;20165;-83
2023/09/28 14:15:50;;;;;;;11.20;4.00;;;24.90;1.00;;;;;;4926291;29;20138;-85
2023/09/28 14:18:17;;;;;;;8.30;5.22;;;24.80;1.00;;;;;;4938932;29;20050;-85
2023/09/28 14:20:45;;;;;;;6.88;4.28;;;24.70;1.00;;;;;;4918682;29;20080;-84
2023/09/28 14:23:13;;;;;;;6.47;2.95;;;24.70;1.00;;;;;;4922478;29;20552;-85
2023/09/28 14:25:40;;;;;;;5.22;3.22;;;24.60;1.00;;;;;;4925294;29;20474;-86
2023/09/28 14:28:08;;;;;;;7.03;2.90;;;24.60;1.00;;;;;;4922268;29;20720;-85
2023/09/28 14:30:37;;;;;;;7.38;3.90;;;24.60;1.00;;;;;;4923542;29;20047;-82
2023/09/28 14:33:05;;;;;;;7.28;4.60;;;24.50;1.00;;;;;;4922412;28;20044;-85
2023/09/28 14:35:32;;;;;;;9.40;3.60;;;24.60;1.00;;;;;;4922519;29;20051;-86
2023/09/28 14:38:00;;;;;;;7.63;3.97;;;24.60;1.00;;;;;;4922544;29;20720;-84
2023/09/28 14:40:29;;;;;;;10.43;6.97;;;24.60;1.00;;;;;;4941365;29;20095;-85
2023/09/28 14:42:56;;;;;;;8.60;3.50;;;24.60;1.00;;;;;;4958159;29;20039;-84
2023/09/28 14:45:24;;;;;;;9.65;4.90;;;24.50;1.00;;;;;;4948779;29;20385;-82
2023/09/28 14:47:53;;;;;;;10.55;4.38;;;24.40;1.00;;;;;;4922861;29;20125;-82
2023/09/28 14:50:20;;;;;;;10.27;4.65;;;24.40;1.00;;;;;;4940808;29;20131;-83
2023/09/28 14:52:48;;;;;;;9.23;4.10;;;24.40;1.00;;;;;;4935677;29;20050;-85
2023/09/28 14:55:15;;;;;;;10.63;4.05;;;24.50;1.00;;;;;;4912851;29;20146;-84
2023/09/28 14:57:43;;;;;;;8.02;4.28;;;24.50;1.00;;;;;;4917878;29;20071;-83
2023/09/28 15:00:11;;;;;;;11.00;3.38;;;24.50;1.00;;;;;;4929751;23;20167;-77
2023/09/28 15:02:39;;;;;;;11.02;3.58;;;24.30;1.00;;;;;;4909610;29;20040;-75
2023/09/28 15:05:10;;;;;;;7.45;3.88;;;24.40;1.00;;;;;;4930641;29;20071;-77
2023/09/28 15:07:38;;;;;;;7.13;3.40;;;24.30;1.00;;;;;;4933383;29;20129;-76
2023/09/28 15:10:06;;;;;;;8.65;3.70;;;24.30;1.00;;;;;;4932084;29;20104;-72
2023/09/28 15:12:33;;;;;;;10.35;4.03;;;24.20;1.00;;;;;;4924581;29;20049;-76
2023/09/28 15:15:01;;;;;;;6.53;3.78;;;24.10;1.00;;;;;;4917160;29;20546;-77
2023/09/28 15:17:28;;;;;;;8.65;3.53;;;24.10;1.00;;;;;;4923533;29;20044;-76
2023/09/28 15:19:58;;;;;;;8.93;3.78;;;24.10;1.00;;;;;;4924584;29;20051;-76
2023/09/28 15:22:26;;;;;;;11.18;4.90;;;24.00;1.00;;;;;;4911238;29;20100;-78
2023/09/28 15:24:54;;;;;;;10.07;4.55;;;23.90;1.00;;;;;;4913477;29;20048;-77
2023/09/28 15:27:21;;;;;;;9.95;4.65;;;23.90;1.00;;;;;;4912177;29;20601;-78
2023/09/28 15:29:49;;;;;;;10.65;4.78;;;23.80;1.00;;;;;;4911057;29;20135;-74
2023/09/28 15:32:16;;;;;;;14.73;6.93;;;23.80;1.00;;;;;;4911789;29;20123;-77
2023/09/28 15:34:49;;;;;;;9.82;5.80;;;23.70;1.00;;;;;;4914039;29;20393;-77
2023/09/28 15:37:18;;;;;;;14.30;8.30;;;23.70;1.00;;;;;;4914990;29;20044;-78
2023/09/28 15:39:47;;;;;;;13.35;5.63;;;23.60;1.00;;;;;;4917771;29;20052;-75
2023/09/28 15:42:14;;;;;;;13.77;6.03;;;23.60;1.00;;;;;;4914448;29;20134;-75
2023/09/28 15:44:41;;;;;;;11.13;4.15;;;23.50;1.00;;;;;;4913829;29;20051;-74
2023/09/28 15:47:09;;;;;;;8.32;4.03;;;23.50;1.00;;;;;;4916018;29;20054;-75
2023/09/28 15:49:36;;;;;;;11.88;4.55;;;23.50;1.00;;;;;;4915024;29;20063;-77
2023/09/28 15:52:04;;;;;;;11.45;4.80;;;23.40;1.00;;;;;;4917394;29;20579;-74
2023/09/28 15:54:31;;;;;;;7.22;4.05;;;23.30;1.00;;;;;;4921322;29;20596;-75